CRL910D FMEE-HTZA
Flight info
| Callsign | CRL910D |
|---|---|
| Flight time | N/A |
| Altitude | 32000 |
| Route | DOBUT2J DOBUT UB790 KINAN UT913 AVEKI UVDOG |
| Aircraft | B742/H-VGDW/C |
Departure
| Time | 2026-04-28 15:48 |
|---|---|
| Airport | Roland Garros Airport (FMEE) |
Arrival
| Time | N/A |
|---|---|
| Airport | Abeid Amani Karume International Airport (HTZA) |
| Time | Latitude | Longitude | Altitude | Speed | Heading |
|---|---|---|---|---|---|
| 2026-04-28 15:26 | -20.88963 | 55.50985 | 120 ft | 0 kts | 207° |
| 2026-04-28 15:33 | -20.88961 | 55.50986 | 125 ft | 2 kts | 207° |
| 2026-04-28 15:33 | -20.88948 | 55.50994 | 128 ft | 2 kts | 207° |
| 2026-04-28 15:33 | -20.88934 | 55.51001 | 132 ft | 2 kts | 207° |
| 2026-04-28 15:34 | -20.88922 | 55.51010 | 133 ft | 2 kts | 224° |
| 2026-04-28 15:34 | -20.88913 | 55.51022 | 127 ft | 2 kts | 240° |
| 2026-04-28 15:34 | -20.88907 | 55.51037 | 122 ft | 2 kts | 257° |
| 2026-04-28 15:34 | -20.88905 | 55.51053 | 117 ft | 2 kts | 274° |
| 2026-04-28 15:35 | -20.88908 | 55.51069 | 114 ft | 2 kts | 290° |
| 2026-04-28 15:35 | -20.88922 | 55.51097 | 114 ft | 2 kts | 298° |
| 2026-04-28 15:35 | -20.88929 | 55.51111 | 115 ft | 2 kts | 298° |
| 2026-04-28 15:36 | -20.88936 | 55.51125 | 115 ft | 2 kts | 298° |
| 2026-04-28 15:36 | -20.88943 | 55.51140 | 115 ft | 2 kts | 298° |
| 2026-04-28 15:36 | -20.88950 | 55.51154 | 116 ft | 2 kts | 298° |
| 2026-04-28 15:36 | -20.88957 | 55.51167 | 116 ft | 2 kts | 298° |
| 2026-04-28 15:37 | -20.88965 | 55.51181 | 116 ft | 1 kts | 298° |
| 2026-04-28 15:37 | -20.88965 | 55.51183 | 116 ft | 0 kts | 298° |
| 2026-04-28 15:39 | -20.88965 | 55.51182 | 116 ft | 0 kts | 304° |
| 2026-04-28 15:40 | -20.88951 | 55.51178 | 115 ft | 4 kts | 356° |
| 2026-04-28 15:40 | -20.88912 | 55.51174 | 112 ft | 0 kts | 348° |
| 2026-04-28 15:42 | -20.88907 | 55.51173 | 112 ft | 2 kts | 348° |
| 2026-04-28 15:42 | -20.88878 | 55.51165 | 110 ft | 6 kts | 344° |
| 2026-04-28 15:42 | -20.88823 | 55.51148 | 106 ft | 10 kts | 342° |
| 2026-04-28 15:43 | -20.88748 | 55.51111 | 101 ft | 13 kts | 328° |
| 2026-04-28 15:43 | -20.88711 | 55.51029 | 99 ft | 12 kts | 282° |
| 2026-04-28 15:43 | -20.88694 | 55.50946 | 99 ft | 11 kts | 282° |
| 2026-04-28 15:43 | -20.88678 | 55.50866 | 98 ft | 10 kts | 282° |
| 2026-04-28 15:44 | -20.88662 | 55.50789 | 97 ft | 9 kts | 282° |
| 2026-04-28 15:44 | -20.88650 | 55.50725 | 98 ft | 7 kts | 282° |
| 2026-04-28 15:44 | -20.88639 | 55.50673 | 98 ft | 7 kts | 282° |
| 2026-04-28 15:44 | -20.88627 | 55.50614 | 97 ft | 9 kts | 282° |
| 2026-04-28 15:45 | -20.88601 | 55.50542 | 94 ft | 8 kts | 307° |
| 2026-04-28 15:45 | -20.88576 | 55.50495 | 92 ft | 5 kts | 248° |
| 2026-04-28 15:45 | -20.88596 | 55.50492 | 93 ft | 2 kts | 123° |
| 2026-04-28 15:45 | -20.88598 | 55.50498 | 93 ft | 0 kts | 114° |
| 2026-04-28 15:46 | -20.88599 | 55.50499 | 94 ft | 1 kts | 114° |
| 2026-04-28 15:46 | -20.88608 | 55.50528 | 95 ft | 7 kts | 103° |
| 2026-04-28 15:46 | -20.88619 | 55.50578 | 96 ft | 5 kts | 103° |
| 2026-04-28 15:46 | -20.88624 | 55.50599 | 97 ft | 0 kts | 103° |
| 2026-04-28 15:47 | -20.88624 | 55.50600 | 97 ft | 1 kts | 103° |
| 2026-04-28 15:47 | -20.88665 | 55.50808 | 97 ft | 59 kts | 102° |
| 2026-04-28 15:47 | -20.88793 | 55.51447 | 99 ft | 116 kts | 102° |
| 2026-04-28 15:47 | -20.88997 | 55.52469 | 136 ft | 159 kts | 102° |
| 2026-04-28 15:48 | -20.89212 | 55.53625 | 582 ft | 161 kts | 101° |
| 2026-04-28 15:48 | -20.89356 | 55.54818 | 1093 ft | 162 kts | 81° |
| 2026-04-28 15:48 | -20.88886 | 55.55941 | 1431 ft | 174 kts | 47° |
| 2026-04-28 15:48 | -20.87859 | 55.56662 | 1860 ft | 186 kts | 20° |
| 2026-04-28 15:49 | -20.86522 | 55.56880 | 2292 ft | 200 kts | 6° |
| 2026-04-28 15:49 | -20.85161 | 55.56992 | 2690 ft | 201 kts | 7° |
| 2026-04-28 15:49 | -20.83779 | 55.57127 | 2941 ft | 203 kts | 2° |
| 2026-04-28 15:49 | -20.82318 | 55.57053 | 3111 ft | 212 kts | 358° |
| 2026-04-28 15:50 | -20.80850 | 55.56753 | 3349 ft | 217 kts | 342° |
| 2026-04-28 15:50 | -20.79407 | 55.56228 | 3591 ft | 221 kts | 346° |
| 2026-04-28 15:50 | -20.77850 | 55.55894 | 3732 ft | 230 kts | 353° |
| 2026-04-28 15:50 | -20.76294 | 55.55378 | 3937 ft | 238 kts | 338° |
| 2026-04-28 15:51 | -20.74776 | 55.54667 | 4170 ft | 245 kts | 339° |
| 2026-04-28 15:51 | -20.73158 | 55.53930 | 4307 ft | 259 kts | 339° |
| 2026-04-28 15:51 | -20.71421 | 55.53182 | 4488 ft | 272 kts | 340° |
| 2026-04-28 15:51 | -20.69682 | 55.52425 | 5057 ft | 269 kts | 339° |
| 2026-04-28 15:52 | -20.67921 | 55.51620 | 5332 ft | 279 kts | 339° |
| 2026-04-28 15:52 | -20.66101 | 55.50822 | 5690 ft | 285 kts | 340° |
| 2026-04-28 15:52 | -20.64260 | 55.50031 | 6218 ft | 283 kts | 339° |
| 2026-04-28 15:52 | -20.62486 | 55.49234 | 6902 ft | 275 kts | 338° |
| 2026-04-28 15:53 | -20.60723 | 55.48414 | 7301 ft | 279 kts | 338° |
| 2026-04-28 15:53 | -20.58890 | 55.47622 | 7484 ft | 291 kts | 338° |
| 2026-04-28 15:53 | -20.57218 | 55.46389 | 7847 ft | 297 kts | 313° |
| 2026-04-28 15:53 | -20.55940 | 55.44662 | 8364 ft | 296 kts | 307° |
| 2026-04-28 15:54 | -20.54718 | 55.42854 | 8801 ft | 299 kts | 307° |
| 2026-04-28 15:54 | -20.53496 | 55.41071 | 9252 ft | 300 kts | 307° |
| 2026-04-28 15:54 | -20.52245 | 55.39271 | 9691 ft | 302 kts | 308° |
| 2026-04-28 15:54 | -20.50995 | 55.37487 | 10136 ft | 304 kts | 308° |
| 2026-04-28 15:55 | -20.49687 | 55.35625 | 10270 ft | 319 kts | 308° |
| 2026-04-28 15:55 | -20.48320 | 55.33689 | 10365 ft | 334 kts | 308° |
| 2026-04-28 15:55 | -20.46884 | 55.31668 | 10458 ft | 350 kts | 308° |
| 2026-04-28 15:55 | -20.45388 | 55.29557 | 10549 ft | 365 kts | 308° |
| 2026-04-28 15:56 | -20.43838 | 55.27362 | 10678 ft | 379 kts | 308° |
| 2026-04-28 15:56 | -20.42248 | 55.25105 | 11235 ft | 378 kts | 308° |
| 2026-04-28 15:56 | -20.40682 | 55.22881 | 11772 ft | 379 kts | 308° |
| 2026-04-28 15:56 | -20.39084 | 55.20614 | 12249 ft | 381 kts | 308° |
| 2026-04-28 15:57 | -20.37485 | 55.18344 | 12724 ft | 384 kts | 308° |
| 2026-04-28 15:57 | -20.35893 | 55.16087 | 13200 ft | 386 kts | 308° |
| 2026-04-28 15:57 | -20.34262 | 55.13776 | 13685 ft | 388 kts | 307° |
| 2026-04-28 15:57 | -20.32628 | 55.11461 | 14157 ft | 391 kts | 307° |
| 2026-04-28 15:58 | -20.30996 | 55.09148 | 14620 ft | 393 kts | 307° |
| 2026-04-28 15:58 | -20.29348 | 55.06815 | 15103 ft | 395 kts | 307° |
| 2026-04-28 15:58 | -20.27695 | 55.04476 | 15570 ft | 397 kts | 307° |
| 2026-04-28 15:58 | -20.26040 | 55.02135 | 16047 ft | 399 kts | 307° |
| 2026-04-28 15:59 | -20.24349 | 54.99744 | 16506 ft | 402 kts | 307° |
| 2026-04-28 15:59 | -20.22676 | 54.97378 | 16920 ft | 405 kts | 306° |
| 2026-04-28 15:59 | -20.20984 | 54.94986 | 17375 ft | 407 kts | 306° |
| 2026-04-28 15:59 | -20.19276 | 54.92574 | 17816 ft | 409 kts | 306° |
| 2026-04-28 16:00 | -20.17555 | 54.90144 | 18180 ft | 413 kts | 306° |
| 2026-04-28 16:00 | -20.15810 | 54.87680 | 18563 ft | 417 kts | 306° |
| 2026-04-28 16:00 | -20.14060 | 54.85212 | 18956 ft | 420 kts | 306° |
| 2026-04-28 16:00 | -20.12294 | 54.82721 | 19335 ft | 423 kts | 306° |
| 2026-04-28 16:01 | -20.10526 | 54.80228 | 19716 ft | 426 kts | 305° |
| 2026-04-28 16:01 | -20.08725 | 54.77690 | 20089 ft | 429 kts | 305° |
| 2026-04-28 16:01 | -20.06936 | 54.75169 | 20458 ft | 432 kts | 305° |
| 2026-04-28 16:01 | -20.05102 | 54.72587 | 20837 ft | 435 kts | 304° |
| 2026-04-28 16:02 | -20.03282 | 54.70025 | 21160 ft | 438 kts | 304° |
| 2026-04-28 16:02 | -20.01441 | 54.67435 | 21504 ft | 441 kts | 304° |
| 2026-04-28 16:02 | -19.99594 | 54.64836 | 21831 ft | 444 kts | 304° |
| 2026-04-28 16:02 | -19.97710 | 54.62189 | 22127 ft | 448 kts | 304° |
| 2026-04-28 16:03 | -19.95825 | 54.59540 | 22436 ft | 450 kts | 304° |
| 2026-04-28 16:03 | -19.93952 | 54.56910 | 22759 ft | 453 kts | 304° |
| 2026-04-28 16:03 | -19.92043 | 54.54229 | 23046 ft | 456 kts | 304° |
| 2026-04-28 16:03 | -19.90125 | 54.51536 | 23326 ft | 459 kts | 304° |
| 2026-04-28 16:04 | -19.88195 | 54.48828 | 23601 ft | 462 kts | 304° |
| 2026-04-28 16:04 | -19.86245 | 54.46091 | 23882 ft | 464 kts | 304° |
| 2026-04-28 16:04 | -19.84285 | 54.43341 | 24132 ft | 468 kts | 303° |
| 2026-04-28 16:04 | -19.82334 | 54.40607 | 24427 ft | 469 kts | 303° |
| 2026-04-28 16:05 | -19.80344 | 54.37821 | 24694 ft | 472 kts | 303° |
| 2026-04-28 16:05 | -19.78346 | 54.35024 | 24935 ft | 475 kts | 303° |
| 2026-04-28 16:05 | -19.76362 | 54.32259 | 25183 ft | 477 kts | 304° |
| 2026-04-28 16:05 | -19.74337 | 54.29454 | 25421 ft | 480 kts | 304° |
| 2026-04-28 16:06 | -19.72295 | 54.26624 | 25666 ft | 482 kts | 304° |
| 2026-04-28 16:06 | -19.70266 | 54.23803 | 25869 ft | 485 kts | 303° |
| 2026-04-28 16:06 | -19.68194 | 54.20919 | 26131 ft | 487 kts | 303° |
| 2026-04-28 16:06 | -19.66156 | 54.18079 | 26350 ft | 489 kts | 303° |
| 2026-04-28 16:07 | -19.64085 | 54.15190 | 26573 ft | 491 kts | 303° |
| 2026-04-28 16:07 | -19.62004 | 54.12290 | 26777 ft | 494 kts | 303° |
| 2026-04-28 16:07 | -19.57817 | 54.06456 | 27202 ft | 498 kts | 303° |
| 2026-04-28 16:08 | -19.55722 | 54.03539 | 27399 ft | 500 kts | 303° |
| 2026-04-28 16:08 | -19.53615 | 54.00607 | 27605 ft | 502 kts | 303° |
| 2026-04-28 16:08 | -19.51547 | 53.97649 | 27766 ft | 502 kts | 298° |
| 2026-04-28 16:09 | -19.48725 | 53.90997 | 28105 ft | 496 kts | 283° |
| 2026-04-28 16:09 | -19.47659 | 53.87504 | 28315 ft | 496 kts | 282° |
| 2026-04-28 16:09 | -19.46635 | 53.84023 | 28554 ft | 497 kts | 282° |
| 2026-04-28 16:10 | -19.44550 | 53.77041 | 28901 ft | 502 kts | 283° |
| 2026-04-28 16:10 | -19.43468 | 53.73510 | 29124 ft | 503 kts | 283° |
| 2026-04-28 16:10 | -19.41285 | 53.66490 | 29569 ft | 505 kts | 283° |
| 2026-04-28 16:11 | -19.39069 | 53.59407 | 29935 ft | 507 kts | 283° |
| 2026-04-28 16:11 | -19.36850 | 53.52328 | 30332 ft | 509 kts | 284° |
| 2026-04-28 16:12 | -19.34617 | 53.45215 | 30727 ft | 509 kts | 284° |
| 2026-04-28 16:12 | -19.33197 | 53.41768 | 30980 ft | 514 kts | 295° |
| 2026-04-28 16:13 | -19.29067 | 53.35616 | 31541 ft | 517 kts | 305° |
| 2026-04-28 16:13 | -19.26782 | 53.32678 | 31762 ft | 517 kts | 306° |
| 2026-04-28 16:13 | -19.22164 | 53.26807 | 31922 ft | 522 kts | 306° |
| 2026-04-28 16:14 | -19.17573 | 53.20832 | 31923 ft | 528 kts | 305° |
| 2026-04-28 16:15 | -19.08372 | 53.08691 | 31924 ft | 524 kts | 305° |
| 2026-04-28 16:15 | -19.03825 | 53.02693 | 31927 ft | 526 kts | 305° |
| 2026-04-28 16:16 | -18.96913 | 52.93585 | 31922 ft | 528 kts | 305° |
| 2026-04-28 16:17 | -18.90047 | 52.84557 | 31923 ft | 526 kts | 305° |
| 2026-04-28 16:17 | -18.85490 | 52.78566 | 31919 ft | 527 kts | 305° |
| 2026-04-28 16:18 | -18.80900 | 52.72540 | 31920 ft | 527 kts | 306° |
| 2026-04-28 16:18 | -18.76305 | 52.66517 | 31909 ft | 524 kts | 306° |
| 2026-04-28 16:19 | -18.71723 | 52.60515 | 31904 ft | 525 kts | 306° |
| 2026-04-28 16:19 | -18.67135 | 52.54510 | 31902 ft | 526 kts | 306° |
| 2026-04-28 16:20 | -18.62577 | 52.48552 | 31903 ft | 525 kts | 306° |
| 2026-04-28 16:20 | -18.57976 | 52.42544 | 31905 ft | 525 kts | 306° |
| 2026-04-28 16:21 | -18.53362 | 52.36522 | 31904 ft | 525 kts | 306° |
| 2026-04-28 16:21 | -18.48761 | 52.30550 | 31903 ft | 525 kts | 306° |
| 2026-04-28 16:22 | -18.44151 | 52.24588 | 31898 ft | 525 kts | 306° |
| 2026-04-28 16:22 | -18.39584 | 52.18659 | 31898 ft | 525 kts | 306° |
| 2026-04-28 16:23 | -18.34968 | 52.12660 | 31901 ft | 524 kts | 306° |
| 2026-04-28 16:23 | -18.30397 | 52.06723 | 31901 ft | 523 kts | 306° |
| 2026-04-28 16:24 | -18.25802 | 52.00760 | 31903 ft | 524 kts | 306° |
| 2026-04-28 16:24 | -18.21241 | 51.94848 | 31903 ft | 523 kts | 306° |
| 2026-04-28 16:25 | -18.16641 | 51.88890 | 31904 ft | 523 kts | 306° |
| 2026-04-28 16:25 | -18.12043 | 51.82940 | 31905 ft | 524 kts | 306° |
| 2026-04-28 16:26 | -18.07472 | 51.77032 | 31906 ft | 523 kts | 306° |
| 2026-04-28 16:26 | -18.02874 | 51.71095 | 31907 ft | 521 kts | 306° |
| 2026-04-28 16:27 | -17.98302 | 51.65195 | 31911 ft | 520 kts | 306° |
| 2026-04-28 16:28 | -17.91455 | 51.56370 | 31912 ft | 521 kts | 306° |
| 2026-04-28 16:28 | -17.86888 | 51.50490 | 31918 ft | 521 kts | 306° |
| 2026-04-28 16:29 | -17.79989 | 51.41615 | 31921 ft | 523 kts | 306° |
| 2026-04-28 16:30 | -17.73078 | 51.32746 | 31918 ft | 521 kts | 307° |
| 2026-04-28 16:30 | -17.68469 | 51.26878 | 31920 ft | 521 kts | 307° |
| 2026-04-28 16:31 | -17.63881 | 51.21020 | 31923 ft | 522 kts | 307° |
| 2026-04-28 16:31 | -17.59291 | 51.15147 | 31923 ft | 521 kts | 307° |
| 2026-04-28 16:32 | -17.54676 | 51.09241 | 31923 ft | 523 kts | 307° |
| 2026-04-28 16:32 | -17.47790 | 51.00442 | 31924 ft | 523 kts | 307° |
| 2026-04-28 16:33 | -17.43933 | 50.95517 | 31924 ft | 524 kts | 307° |
| 2026-04-28 16:33 | -17.38568 | 50.88678 | 31924 ft | 522 kts | 307° |
| 2026-04-28 16:34 | -17.33970 | 50.82822 | 31924 ft | 521 kts | 307° |
| 2026-04-28 16:34 | -17.29332 | 50.76920 | 31925 ft | 523 kts | 307° |
| 2026-04-28 16:35 | -17.24733 | 50.71072 | 31921 ft | 522 kts | 307° |
| 2026-04-28 16:35 | -17.20120 | 50.65212 | 31917 ft | 522 kts | 307° |
| 2026-04-28 16:36 | -17.15485 | 50.59329 | 31914 ft | 523 kts | 307° |
| 2026-04-28 16:36 | -17.10868 | 50.53473 | 31914 ft | 522 kts | 307° |
| 2026-04-28 16:37 | -17.06257 | 50.47631 | 31915 ft | 521 kts | 307° |
| 2026-04-28 16:38 | -16.99310 | 50.38839 | 31913 ft | 522 kts | 307° |
| 2026-04-28 16:38 | -16.94691 | 50.33004 | 31916 ft | 522 kts | 308° |
| 2026-04-28 16:39 | -16.90054 | 50.27187 | 31918 ft | 522 kts | 308° |
| 2026-04-28 16:39 | -16.85425 | 50.21363 | 31919 ft | 521 kts | 308° |
| 2026-04-28 16:40 | -16.80824 | 50.15562 | 31919 ft | 522 kts | 308° |
| 2026-04-28 16:40 | -16.76184 | 50.09714 | 31914 ft | 522 kts | 308° |
| 2026-04-28 16:41 | -16.71544 | 50.03872 | 31911 ft | 520 kts | 308° |
| 2026-04-28 16:41 | -16.66955 | 49.98099 | 31908 ft | 520 kts | 308° |
| 2026-04-28 16:42 | -16.62331 | 49.92285 | 31921 ft | 521 kts | 308° |
| 2026-04-28 16:42 | -16.57693 | 49.86460 | 31923 ft | 521 kts | 308° |
| 2026-04-28 16:43 | -16.53074 | 49.80664 | 31932 ft | 520 kts | 308° |
| 2026-04-28 16:43 | -16.48420 | 49.74827 | 31946 ft | 521 kts | 308° |
| 2026-04-28 16:44 | -16.43791 | 49.69027 | 31965 ft | 521 kts | 308° |
| 2026-04-28 16:44 | -16.39127 | 49.63189 | 31970 ft | 519 kts | 308° |
| 2026-04-28 16:45 | -16.34517 | 49.57421 | 31979 ft | 519 kts | 308° |
| 2026-04-28 16:45 | -16.29879 | 49.51625 | 31986 ft | 520 kts | 308° |
| 2026-04-28 16:46 | -16.25264 | 49.45862 | 31997 ft | 517 kts | 308° |
| 2026-04-28 16:46 | -16.20634 | 49.40084 | 32010 ft | 518 kts | 308° |
| 2026-04-28 16:47 | -16.16013 | 49.34322 | 32029 ft | 521 kts | 309° |
| 2026-04-28 16:47 | -16.11369 | 49.28574 | 32049 ft | 518 kts | 309° |
| 2026-04-28 16:48 | -16.06719 | 49.22811 | 32057 ft | 519 kts | 309° |
| 2026-04-28 16:48 | -16.02069 | 49.17034 | 32059 ft | 519 kts | 309° |
| 2026-04-28 16:49 | -15.97442 | 49.11282 | 32063 ft | 516 kts | 309° |
| 2026-04-28 16:49 | -15.92825 | 49.05548 | 32067 ft | 518 kts | 309° |
| 2026-04-28 16:50 | -15.88175 | 48.99777 | 32065 ft | 518 kts | 309° |
| 2026-04-28 16:50 | -15.83539 | 48.94026 | 32054 ft | 518 kts | 309° |
| 2026-04-28 16:51 | -15.78905 | 48.88283 | 32043 ft | 520 kts | 309° |
| 2026-04-28 16:51 | -15.74269 | 48.82543 | 32034 ft | 520 kts | 309° |
| 2026-04-28 16:52 | -15.69599 | 48.76767 | 32039 ft | 519 kts | 309° |
| 2026-04-28 16:52 | -15.64949 | 48.71020 | 32039 ft | 520 kts | 309° |
| 2026-04-28 16:53 | -15.60289 | 48.65265 | 32039 ft | 519 kts | 309° |
| 2026-04-28 16:53 | -15.55660 | 48.59553 | 32034 ft | 518 kts | 309° |
| 2026-04-28 16:54 | -15.51013 | 48.53822 | 32030 ft | 520 kts | 309° |
| 2026-04-28 16:54 | -15.46358 | 48.48086 | 32027 ft | 520 kts | 309° |
| 2026-04-28 16:55 | -15.41700 | 48.42351 | 32002 ft | 519 kts | 309° |
| 2026-04-28 16:55 | -15.37029 | 48.36605 | 31990 ft | 520 kts | 309° |
| 2026-04-28 16:56 | -15.32352 | 48.30873 | 31972 ft | 522 kts | 309° |
| 2026-04-28 16:56 | -15.27673 | 48.25160 | 31963 ft | 521 kts | 309° |
| 2026-04-28 16:57 | -15.22987 | 48.19420 | 31951 ft | 521 kts | 309° |
| 2026-04-28 16:57 | -15.18290 | 48.13659 | 31943 ft | 522 kts | 309° |
| 2026-04-28 16:58 | -15.13645 | 48.07966 | 31934 ft | 520 kts | 309° |
| 2026-04-28 16:58 | -15.08964 | 48.02231 | 31911 ft | 521 kts | 309° |
| 2026-04-28 16:59 | -15.04272 | 47.96488 | 31907 ft | 522 kts | 309° |
| 2026-04-28 16:59 | -14.99573 | 47.90742 | 31911 ft | 522 kts | 309° |
| 2026-04-28 17:00 | -14.94880 | 47.85008 | 31921 ft | 522 kts | 309° |
| 2026-04-28 17:00 | -14.90189 | 47.79281 | 31922 ft | 522 kts | 309° |
| 2026-04-28 17:01 | -14.85492 | 47.73548 | 31923 ft | 523 kts | 309° |
| 2026-04-28 17:01 | -14.80780 | 47.67800 | 31917 ft | 523 kts | 309° |
| 2026-04-28 17:02 | -14.76043 | 47.62028 | 31911 ft | 523 kts | 309° |
| 2026-04-28 17:02 | -14.71340 | 47.56302 | 31907 ft | 524 kts | 309° |
| 2026-04-28 17:03 | -14.64303 | 47.47744 | 31899 ft | 522 kts | 309° |
| 2026-04-28 17:03 | -14.59570 | 47.41992 | 31893 ft | 525 kts | 309° |
| 2026-04-28 17:04 | -14.52477 | 47.33384 | 31890 ft | 523 kts | 310° |
| 2026-04-28 17:05 | -14.45378 | 47.24822 | 31889 ft | 526 kts | 310° |
| 2026-04-28 17:06 | -14.38267 | 47.16217 | 31887 ft | 523 kts | 310° |
| 2026-04-28 17:06 | -14.31178 | 47.07636 | 31887 ft | 524 kts | 310° |
| 2026-04-28 17:07 | -14.26432 | 47.01897 | 31884 ft | 523 kts | 310° |
| 2026-04-28 17:07 | -14.21730 | 46.96217 | 31888 ft | 524 kts | 310° |
| 2026-04-28 17:08 | -14.16963 | 46.90461 | 31895 ft | 525 kts | 310° |
| 2026-04-28 17:08 | -14.12220 | 46.84739 | 31909 ft | 525 kts | 310° |
| 2026-04-28 17:09 | -14.07483 | 46.79027 | 31920 ft | 524 kts | 310° |
| 2026-04-28 17:09 | -14.02763 | 46.73340 | 31939 ft | 524 kts | 310° |
| 2026-04-28 17:10 | -13.98022 | 46.67632 | 31944 ft | 524 kts | 310° |
| 2026-04-28 17:10 | -13.93260 | 46.61903 | 31918 ft | 525 kts | 310° |
| 2026-04-28 17:11 | -13.88530 | 46.56215 | 31889 ft | 524 kts | 310° |
| 2026-04-28 17:11 | -13.83778 | 46.50503 | 31897 ft | 525 kts | 310° |
| 2026-04-28 17:12 | -13.79021 | 46.44790 | 31897 ft | 526 kts | 310° |
| 2026-04-28 17:12 | -13.74270 | 46.39089 | 31899 ft | 526 kts | 310° |
| 2026-04-28 17:13 | -13.69505 | 46.33379 | 31908 ft | 526 kts | 310° |
| 2026-04-28 17:13 | -13.64698 | 46.27652 | 31909 ft | 526 kts | 310° |
| 2026-04-28 17:14 | -13.59923 | 46.21952 | 31911 ft | 527 kts | 310° |
| 2026-04-28 17:14 | -13.55151 | 46.16245 | 31911 ft | 527 kts | 310° |
| 2026-04-28 17:15 | -13.50356 | 46.10509 | 31913 ft | 527 kts | 310° |
| 2026-04-28 17:15 | -13.45582 | 46.04802 | 31912 ft | 528 kts | 310° |
| 2026-04-28 17:16 | -13.40786 | 45.99072 | 31913 ft | 527 kts | 310° |
| 2026-04-28 17:16 | -13.36021 | 45.93385 | 31909 ft | 527 kts | 310° |
| 2026-04-28 17:17 | -13.31222 | 45.87660 | 31910 ft | 528 kts | 310° |
| 2026-04-28 17:17 | -13.26451 | 45.81973 | 31910 ft | 528 kts | 310° |
| 2026-04-28 17:18 | -13.21636 | 45.76236 | 31908 ft | 527 kts | 310° |
| 2026-04-28 17:18 | -13.16857 | 45.70547 | 31911 ft | 527 kts | 310° |
| 2026-04-28 17:19 | -13.12056 | 45.64834 | 31909 ft | 528 kts | 310° |
| 2026-04-28 17:19 | -13.07250 | 45.59121 | 31907 ft | 527 kts | 310° |
| 2026-04-28 17:20 | -13.03260 | 45.54379 | 31908 ft | 527 kts | 310° |
| 2026-04-28 17:20 | -12.97656 | 45.47726 | 31910 ft | 527 kts | 310° |
| 2026-04-28 17:21 | -12.92898 | 45.42079 | 31909 ft | 526 kts | 309° |
| 2026-04-28 17:22 | -12.85702 | 45.33547 | 31910 ft | 527 kts | 310° |
| 2026-04-28 17:22 | -12.80896 | 45.27791 | 31910 ft | 527 kts | 306° |
| 2026-04-28 17:23 | -12.74804 | 45.18464 | 31914 ft | 526 kts | 301° |
| 2026-04-28 17:23 | -12.70831 | 45.12141 | 31914 ft | 524 kts | 301° |
| 2026-04-28 17:24 | -12.66858 | 45.05901 | 31914 ft | 524 kts | 302° |
| 2026-04-28 17:24 | -12.62849 | 44.99647 | 31912 ft | 525 kts | 302° |
| 2026-04-28 17:25 | -12.56841 | 44.90288 | 31913 ft | 526 kts | 302° |
| 2026-04-28 17:26 | -12.52825 | 44.84038 | 31912 ft | 524 kts | 302° |
| 2026-04-28 17:26 | -12.48816 | 44.77800 | 31914 ft | 526 kts | 302° |
| 2026-04-28 17:27 | -12.44780 | 44.71523 | 31917 ft | 526 kts | 302° |
| 2026-04-28 17:27 | -12.40757 | 44.65273 | 31930 ft | 525 kts | 302° |
| 2026-04-28 17:28 | -12.36752 | 44.59054 | 31943 ft | 526 kts | 302° |
| 2026-04-28 17:28 | -12.30715 | 44.49688 | 31952 ft | 526 kts | 302° |
| 2026-04-28 17:29 | -12.26658 | 44.43398 | 31955 ft | 527 kts | 302° |
| 2026-04-28 17:30 | -12.20633 | 44.34068 | 31942 ft | 526 kts | 302° |
| 2026-04-28 17:30 | -12.14557 | 44.24712 | 31929 ft | 526 kts | 302° |
| 2026-04-28 17:31 | -12.08510 | 44.15377 | 31929 ft | 526 kts | 302° |
| 2026-04-28 17:32 | -12.02456 | 44.06026 | 31926 ft | 527 kts | 302° |
| 2026-04-28 17:32 | -11.98382 | 43.99738 | 31918 ft | 528 kts | 302° |
| 2026-04-28 17:33 | -11.94341 | 43.93507 | 31914 ft | 527 kts | 302° |
| 2026-04-28 17:33 | -11.90945 | 43.88273 | 31915 ft | 527 kts | 302° |
| 2026-04-28 17:34 | -11.86233 | 43.81012 | 31916 ft | 526 kts | 302° |
| 2026-04-28 17:34 | -11.82176 | 43.74765 | 31918 ft | 525 kts | 302° |
| 2026-04-28 17:35 | -11.78141 | 43.68558 | 31918 ft | 527 kts | 302° |
| 2026-04-28 17:35 | -11.74067 | 43.62295 | 31920 ft | 526 kts | 302° |
| 2026-04-28 17:36 | -11.70021 | 43.56079 | 31921 ft | 526 kts | 302° |
| 2026-04-28 17:36 | -11.65964 | 43.49851 | 31919 ft | 526 kts | 302° |
| 2026-04-28 17:37 | -11.61910 | 43.43631 | 31921 ft | 525 kts | 303° |
| 2026-04-28 17:37 | -11.57848 | 43.37402 | 31918 ft | 524 kts | 303° |
| 2026-04-28 17:38 | -11.53814 | 43.31233 | 31916 ft | 526 kts | 303° |
| 2026-04-28 17:38 | -11.49440 | 43.25248 | 31918 ft | 526 kts | 311° |
| 2026-04-28 17:39 | -11.44431 | 43.19796 | 31916 ft | 526 kts | 314° |
| 2026-04-28 17:40 | -11.36855 | 43.11694 | 31916 ft | 525 kts | 313° |
| 2026-04-28 17:40 | -11.31835 | 43.06230 | 31915 ft | 525 kts | 313° |
| 2026-04-28 17:41 | -11.26841 | 43.00776 | 31916 ft | 525 kts | 313° |
| 2026-04-28 17:41 | -11.21877 | 42.95358 | 31912 ft | 525 kts | 313° |
| 2026-04-28 17:42 | -11.16903 | 42.89933 | 31914 ft | 524 kts | 313° |
| 2026-04-28 17:42 | -11.11917 | 42.84500 | 31917 ft | 525 kts | 313° |
| 2026-04-28 17:43 | -11.06890 | 42.79023 | 31917 ft | 527 kts | 313° |
| 2026-04-28 17:43 | -11.01901 | 42.73592 | 31926 ft | 525 kts | 313° |
| 2026-04-28 17:44 | -10.96906 | 42.68157 | 31933 ft | 525 kts | 313° |
| 2026-04-28 17:44 | -10.91889 | 42.62701 | 31932 ft | 524 kts | 313° |
| 2026-04-28 17:45 | -10.86947 | 42.57328 | 31933 ft | 523 kts | 313° |
| 2026-04-28 17:45 | -10.81943 | 42.51889 | 31933 ft | 523 kts | 313° |
| 2026-04-28 17:46 | -10.76954 | 42.46473 | 31933 ft | 525 kts | 313° |
| 2026-04-28 17:46 | -10.71473 | 42.41617 | 31935 ft | 523 kts | 326° |
| 2026-04-28 17:47 | -10.65300 | 42.37712 | 31933 ft | 523 kts | 330° |
| 2026-04-28 17:47 | -10.59070 | 42.33923 | 31932 ft | 521 kts | 330° |
| 2026-04-28 17:48 | -10.52847 | 42.30072 | 31933 ft | 522 kts | 329° |
| 2026-04-28 17:48 | -10.46653 | 42.26188 | 31933 ft | 522 kts | 329° |
| 2026-04-28 17:49 | -10.40508 | 42.22318 | 31932 ft | 520 kts | 329° |
| 2026-04-28 17:49 | -10.34320 | 42.18422 | 31933 ft | 521 kts | 329° |
| 2026-04-28 17:50 | -10.28140 | 42.14534 | 31932 ft | 521 kts | 329° |
| 2026-04-28 17:50 | -10.21953 | 42.10645 | 31933 ft | 521 kts | 329° |
| 2026-04-28 17:51 | -10.15782 | 42.06766 | 31933 ft | 520 kts | 329° |
| 2026-04-28 17:51 | -10.09644 | 42.02911 | 31933 ft | 521 kts | 329° |
| 2026-04-28 17:52 | -10.03537 | 41.99077 | 31933 ft | 521 kts | 329° |
| 2026-04-28 17:52 | -9.94248 | 41.93248 | 31932 ft | 521 kts | 329° |
| 2026-04-28 17:53 | -9.88079 | 41.89379 | 31930 ft | 521 kts | 329° |
| 2026-04-28 17:53 | -9.81893 | 41.85500 | 31927 ft | 520 kts | 329° |
| 2026-04-28 17:54 | -9.75752 | 41.81652 | 31922 ft | 522 kts | 329° |
| 2026-04-28 17:54 | -9.69565 | 41.77777 | 31914 ft | 522 kts | 329° |
| 2026-04-28 17:55 | -9.63365 | 41.73895 | 31913 ft | 522 kts | 329° |
| 2026-04-28 17:55 | -9.57161 | 41.70013 | 31913 ft | 522 kts | 329° |
| 2026-04-28 17:56 | -9.50999 | 41.66159 | 31912 ft | 520 kts | 329° |